Cerro Largo, Brazil
Current Conditions -  °F | °C
As of 10:00 AM on Sunday 21 Dec 2014 (Local Time) from SGEN Reporting Station
Broken Clouds Broken Clouds  
Wind Chill: 81°   Ceiling: 2000
Heat Index: 85°   Visibility: 6mi
Dew Point: 73°   Wind: 14mph
Humidity: 79%   Direction: 360°N
Pressure: 29.56"   Gusts: 25mph
Location:  28.15°S, 54.74°W
Report Text: SGEN 211200Z 36012G22KT 9999 BKN020 BKN070 27/23 Q1001
Loading
Personal Weather Stations






























Interactive Weather Map New forecast layout! Learn more

10-Day Weather Forecast

Advertisements
Track Severe Weather on mobile